Time;durP1;ratioP1;P1;durP2;ratioP2;P2;SDS_P1;SDS_P2;PMS_P1;PMS_P2;Temp;Humidity;BMP_temperature;BMP_pressure;BME280_temperature;BME280_humidity;BME280_pressure;Samples;Min_cycle;Max_cycle;Signal;HPM_P1;HPM_P2
2022/08/04 00:00:44;;;;;;;8.20;7.10;;;;;;;22.72;61.09;100340.64;116999;1188;23649;-65
2022/08/04 00:03:26;;;;;;;8.10;7.30;;;;;;;22.71;61.06;100343.06;116940;1187;22647;-59
2022/08/04 00:06:03;;;;;;;7.80;7.10;;;;;;;22.70;61.20;100343.80;116951;1190;22924;-59
2022/08/04 00:08:48;;;;;;;7.60;6.90;;;;;;;22.70;61.26;100347.04;116898;1187;23649;-65
2022/08/04 00:11:20;;;;;;;7.20;6.50;;;;;;;22.69;61.21;100350.85;116911;1184;23382;-65
2022/08/04 00:13:59;;;;;;;7.50;6.80;;;;;;;22.69;61.33;100354.59;117025;1188;21871;-65
2022/08/04 00:16:35;;;;;;;8.50;7.70;;;;;;;22.67;61.39;100355.23;117053;1187;21964;-58
2022/08/04 00:19:20;;;;;;;8.00;6.80;;;;;;;22.67;61.30;100353.44;117103;1188;23628;-65
2022/08/04 00:21:51;;;;;;;9.90;7.40;;;;;;;22.68;61.32;100353.06;117027;1188;24235;-59
2022/08/04 00:24:18;;;;;;;8.00;7.00;;;;;;;22.68;61.40;100354.45;116949;1186;24158;-65
2022/08/04 00:26:46;;;;;;;8.20;7.40;;;;;;;22.67;61.42;100353.98;116825;1187;23576;-65
2022/08/04 00:29:13;;;;;;;9.50;7.80;;;;;;;22.65;61.58;100356.66;116891;1187;22925;-65
2022/08/04 00:31:41;;;;;;;8.50;7.70;;;;;;;22.63;61.59;100353.55;117021;1186;23553;-58
2022/08/04 00:34:24;;;;;;;8.10;7.30;;;;;;;22.59;61.70;100359.85;117033;1188;21874;-65
2022/08/04 00:36:53;;;;;;;9.80;7.30;;;;;;;22.58;61.77;100364.23;117101;1188;23557;-59
2022/08/04 00:39:20;;;;;;;10.90;7.80;;;;;;;22.58;61.64;100358.30;117075;1188;24285;-58
2022/08/04 00:42:12;;;;;;;8.40;7.20;;;;;;;22.58;61.65;100358.48;116988;1183;22935;-65
2022/08/04 00:44:39;;;;;;;12.60;7.70;;;;;;;22.58;61.64;100360.25;117057;1188;23579;-65
2022/08/04 00:47:28;;;;;;;9.80;7.40;;;;;;;22.57;61.83;100359.77;117007;1188;22844;-64
2022/08/04 00:50:35;;;;;;;9.40;7.70;;;;;;;22.56;61.96;100365.23;117072;1184;22949;-65
2022/08/04 00:53:06;;;;;;;9.60;7.90;;;;;;;22.53;61.95;100366.11;116546;1192;22784;-58
2022/08/04 00:56:11;;;;;;;9.50;7.70;;;;;;;22.52;61.96;100366.41;117009;1187;24175;-59
2022/08/04 00:59:26;;;;;;;10.00;8.10;;;;;;;22.50;62.10;100364.70;116873;1189;22815;-59
2022/08/04 01:02:21;;;;;;;8.90;7.90;;;;;;;22.51;62.09;100365.60;116990;1188;24162;-58
2022/08/04 01:04:49;;;;;;;9.60;8.10;;;;;;;22.52;62.18;100369.04;117114;1188;21928;-65
2022/08/04 01:07:47;;;;;;;9.10;8.20;;;;;;;22.52;62.16;100371.75;116982;1184;21929;-64
2022/08/04 01:10:39;;;;;;;8.80;7.80;;;;;;;22.51;62.23;100372.71;116964;1188;23098;-65
2022/08/04 01:13:20;;;;;;;8.80;7.90;;;;;;;22.48;62.36;100373.76;116923;1187;23452;-58
2022/08/04 01:15:52;;;;;;;10.30;8.20;;;;;;;22.44;62.37;100369.54;116972;1188;23694;-58
2022/08/04 01:18:51;;;;;;;9.10;8.20;;;;;;;22.43;62.43;100369.05;116929;1187;23654;-65
2022/08/04 01:21:33;;;;;;;8.80;7.90;;;;;;;22.42;62.52;100371.42;116931;1188;21848;-64
2022/08/04 01:24:30;;;;;;;10.40;8.30;;;;;;;22.43;62.46;100372.84;117019;1188;23563;-65
2022/08/04 01:27:42;;;;;;;9.30;8.40;;;;;;;22.43;62.52;100372.62;117061;1187;23648;-65
2022/08/04 01:30:09;;;;;;;10.00;8.00;;;;;;;22.41;62.57;100369.88;116652;1191;23449;-65
2022/08/04 01:32:37;;;;;;;11.20;8.80;;;;;;;22.39;62.56;100367.52;116624;1192;22628;-64
2022/08/04 01:35:08;;;;;;;9.50;8.50;;;;;;;22.37;62.41;100366.57;116783;1192;23492;-65
2022/08/04 01:38:00;;;;;;;9.60;8.50;;;;;;;22.35;62.51;100363.83;117017;1188;21970;-58
2022/08/04 01:40:44;;;;;;;8.60;7.80;;;;;;;22.34;62.51;100363.52;116971;1187;22925;-58
2022/08/04 01:43:13;;;;;;;8.90;8.00;;;;;;;22.35;62.57;100364.73;117115;1188;21845;-59
2022/08/04 01:45:40;;;;;;;11.20;8.70;;;;;;;22.34;62.68;100369.06;117109;1185;21855;-59
2022/08/04 01:48:07;;;;;;;10.40;8.70;;;;;;;22.36;62.59;100369.84;117106;1188;23576;-59
2022/08/04 01:50:35;;;;;;;11.10;8.80;;;;;;;22.39;62.42;100367.69;117122;1188;21970;-58
2022/08/04 01:53:03;;;;;;;10.50;9.40;;;;;;;22.34;62.53;100367.63;117084;1187;23553;-65
2022/08/04 01:55:30;;;;;;;10.00;9.00;;;;;;;22.33;62.71;100368.27;116996;1188;22822;-65
2022/08/04 01:58:18;;;;;;;10.20;9.20;;;;;;;22.29;62.76;100372.96;116915;1187;23016;-65
2022/08/04 02:01:06;;;;;;;9.80;8.80;;;;;;;22.24;62.97;100375.02;117029;1186;24239;-65
2022/08/04 02:03:44;;;;;;;9.70;8.70;;;;;;;22.23;63.00;100377.77;117051;1188;21895;-59
2022/08/04 02:06:39;;;;;;;9.40;8.50;;;;;;;22.23;63.00;100375.08;116950;1186;22982;-65
2022/08/04 02:09:20;;;;;;;10.60;9.00;;;;;;;22.24;63.00;100368.79;116862;1188;21853;-66
2022/08/04 02:11:57;;;;;;;9.70;8.70;;;;;;;22.27;62.91;100370.02;117041;1184;24211;-66
2022/08/04 02:14:41;;;;;;;10.40;9.20;;;;;;;22.32;62.85;100367.22;116971;1188;21925;-66
2022/08/04 02:17:13;;;;;;;10.50;9.10;;;;;;;22.38;62.67;100364.73;117018;1187;23040;-66
2022/08/04 02:20:01;;;;;;;11.40;10.20;;;;;;;22.39;62.60;100368.42;117616;1188;22085;-66
2022/08/04 02:22:29;;;;;;;10.20;9.10;;;;;;;22.39;62.65;100366.27;116980;1185;24328;-60
2022/08/04 02:25:07;;;;;;;10.30;9.30;;;;;;;22.39;62.64;100368.38;117077;1188;23999;-66
2022/08/04 02:27:46;;;;;;;10.40;9.20;;;;;;;22.40;62.65;100367.95;117057;1191;23602;-66
2022/08/04 02:30:55;;;;;;;10.30;9.10;;;;;;;22.33;62.76;100365.20;116994;1188;21854;-66
2022/08/04 02:33:26;;;;;;;17.20;9.70;;;;;;;22.26;63.06;100366.35;116953;1188;23579;-66
2022/08/04 02:35:56;;;;;;;13.60;10.10;;;;;;;22.28;62.81;100369.76;117022;1185;22998;-66
2022/08/04 02:38:53;;;;;;;10.40;9.30;;;;;;;22.35;62.77;100368.48;117012;1188;22910;-66
2022/08/04 02:41:23;;;;;;;10.30;9.30;;;;;;;22.35;62.96;100368.67;116956;1188;21882;-59
2022/08/04 02:43:51;;;;;;;11.10;9.90;;;;;;;22.25;63.23;100368.36;117112;1185;23547;-59
2022/08/04 02:46:19;;;;;;;11.30;10.10;;;;;;;22.21;63.21;100370.55;117030;1189;22056;-59
2022/08/04 02:48:47;;;;;;;13.50;9.90;;;;;;;22.20;63.37;100371.53;117001;1187;21958;-66
2022/08/04 02:51:15;;;;;;;11.40;10.20;;;;;;;22.22;63.22;100367.13;117019;1191;23548;-66
2022/08/04 02:53:42;;;;;;;11.30;9.90;;;;;;;22.27;63.24;100364.67;116953;1185;23556;-65
2022/08/04 02:56:09;;;;;;;10.60;9.50;;;;;;;22.27;62.99;100368.04;117063;1188;22914;-65
2022/08/04 02:58:36;;;;;;;10.50;9.40;;;;;;;22.22;63.24;100369.65;116850;1186;23462;-66
2022/08/04 03:01:03;;;;;;;11.20;10.00;;;;;;;22.18;63.47;100366.50;116930;1188;21852;-59
2022/08/04 03:03:39;;;;;;;11.80;10.50;;;;;;;22.18;63.54;100367.34;116993;1188;22900;-59
2022/08/04 03:06:10;;;;;;;11.70;9.90;;;;;;;22.20;63.37;100365.83;116897;1189;21888;-66
2022/08/04 03:09:22;;;;;;;12.10;10.00;;;;;;;22.20;63.48;100363.14;116995;1188;22628;-65
2022/08/04 03:12:13;;;;;;;10.70;9.20;;;;;;;22.21;63.63;100365.38;116592;1188;22921;-59
2022/08/04 03:14:59;;;;;;;10.60;9.60;;;;;;;22.21;63.63;100367.73;117114;1186;23461;-66
2022/08/04 03:17:51;;;;;;;11.10;9.80;;;;;;;22.22;63.52;100367.10;118525;1184;22926;-66
2022/08/04 03:20:44;;;;;;;10.80;9.70;;;;;;;22.26;63.66;100366.54;117166;1188;22241;-66
2022/08/04 03:23:44;;;;;;;11.10;9.80;;;;;;;22.28;63.62;100365.31;116896;1188;21866;-66
2022/08/04 03:26:32;;;;;;;11.20;10.10;;;;;;;22.34;63.67;100368.73;116895;1185;23641;-66
2022/08/04 03:29:09;;;;;;;11.60;10.40;;;;;;;22.36;63.79;100370.75;117000;1188;24176;-66
2022/08/04 03:32:07;;;;;;;11.70;10.50;;;;;;;22.38;63.71;100369.69;117070;1187;21863;-66
2022/08/04 03:35:12;;;;;;;11.20;10.10;;;;;;;22.38;63.90;100371.85;116895;1188;22495;-65
2022/08/04 03:38:07;;;;;;;12.20;10.90;;;;;;;22.39;64.01;100371.27;117045;1187;21865;-59
2022/08/04 03:40:49;;;;;;;11.30;10.20;;;;;;;22.40;63.86;100370.48;117064;1188;23475;-66
2022/08/04 03:43:22;;;;;;;13.80;10.10;;;;;;;22.43;63.99;100370.48;117043;1186;22924;-59
2022/08/04 03:46:15;;;;;;;10.90;9.90;;;;;;;22.48;64.09;100371.61;116962;1188;23062;-66
2022/08/04 03:49:20;;;;;;;11.90;10.70;;;;;;;22.53;64.02;100374.91;116929;1185;23576;-66
2022/08/04 03:55:10;;;;;;;12.80;11.60;;;;;;;22.59;64.31;100374.88;117027;1186;24164;-59
2022/08/04 03:57:47;;;;;;;12.40;11.30;;;;;;;22.62;64.51;100377.95;117050;1188;22134;-59
2022/08/04 04:00:18;;;;;;;13.40;12.10;;;;;;;22.64;64.58;100375.60;117089;1188;22945;-59
2022/08/04 04:03:06;;;;;;;12.70;11.50;;;;;;;22.68;64.45;100375.73;116902;1189;21858;-59
2022/08/04 04:05:33;;;;;;;13.70;12.30;;;;;;;22.71;64.26;100376.80;117021;1188;23510;-66
2022/08/04 04:08:39;;;;;;;13.30;11.90;;;;;;;22.75;64.44;100380.65;117012;1188;21895;-66
2022/08/04 04:11:51;;;;;;;14.40;13.00;;;;;;;22.79;64.84;100379.35;117090;1188;23629;-59
2022/08/04 04:14:48;;;;;;;15.20;13.80;;;;;;;22.83;64.62;100379.45;116960;1188;23372;-66
2022/08/04 04:17:43;;;;;;;15.40;13.80;;;;;;;22.90;64.78;100385.81;117073;1188;23626;-58
2022/08/04 04:20:29;;;;;;;18.00;16.20;;;;;;;22.96;64.72;100381.35;116992;1185;22919;-66
2022/08/04 04:23:21;;;;;;;17.20;15.40;;;;;;;23.02;64.74;100385.77;116820;1189;23601;-66
2022/08/04 04:26:01;;;;;;;17.60;15.70;;;;;;;23.08;64.72;100384.89;117079;1183;23020;-66
2022/08/04 04:28:34;;;;;;;17.60;15.90;;;;;;;23.12;64.73;100383.19;116883;1188;21854;-66
2022/08/04 04:31:32;;;;;;;17.50;15.80;;;;;;;23.17;64.77;100387.86;116797;1191;22988;-66
2022/08/04 04:34:41;;;;;;;18.10;16.20;;;;;;;23.22;64.55;100387.55;116998;1188;22929;-59
2022/08/04 04:37:17;;;;;;;17.60;14.80;;;;;;;23.28;64.62;100385.73;116935;1189;21855;-65
2022/08/04 04:39:59;;;;;;;17.40;15.60;;;;;;;23.34;64.78;100380.34;117042;1189;23557;-59
2022/08/04 04:42:29;;;;;;;17.20;15.50;;;;;;;23.38;64.63;100382.60;117001;1188;21867;-66
2022/08/04 04:45:27;;;;;;;16.80;15.10;;;;;;;23.41;64.72;100382.90;116979;1185;22909;-66
2022/08/04 04:48:02;;;;;;;18.90;16.90;;;;;;;23.43;64.67;100383.82;116854;1186;22920;-65
2022/08/04 04:51:16;;;;;;;19.00;17.00;;;;;;;23.45;64.80;100383.50;116836;1188;21850;-66
2022/08/04 04:54:07;;;;;;;18.80;16.10;;;;;;;23.49;64.51;100387.95;117050;1188;23452;-59
2022/08/04 04:56:35;;;;;;;18.00;16.30;;;;;;;23.54;64.36;100388.71;117095;1186;21847;-59
2022/08/04 04:59:02;;;;;;;18.00;16.10;;;;;;;23.59;64.41;100385.16;116952;1188;22925;-65
2022/08/04 05:02:00;;;;;;;20.10;16.60;;;;;;;23.65;64.42;100387.23;116866;1188;21900;-66
2022/08/04 05:04:53;;;;;;;19.40;17.00;;;;;;;23.74;64.47;100390.93;117007;1183;23016;-60
2022/08/04 05:07:26;;;;;;;18.70;16.90;;;;;;;23.82;64.29;100392.42;117016;1185;22925;-66
2022/08/04 05:10:11;;;;;;;19.20;17.20;;;;;;;23.87;64.31;100390.27;117030;1188;21855;-65
2022/08/04 05:12:42;;;;;;;19.70;17.60;;;;;;;23.93;64.17;100395.38;116855;1186;23581;-66
2022/08/04 05:15:31;;;;;;;19.80;17.50;;;;;;;24.04;64.31;100397.21;116876;1191;21858;-59
2022/08/04 05:17:58;;;;;;;18.10;16.30;;;;;;;24.12;64.30;100400.59;116857;1186;21858;-66
2022/08/04 05:20:34;;;;;;;20.70;16.90;;;;;;;24.23;64.17;100398.73;116857;1188;23450;-66
2022/08/04 05:23:15;;;;;;;18.40;16.50;;;;;;;24.37;63.86;100402.84;116875;1186;22105;-66
2022/08/04 05:25:48;;;;;;;18.50;16.60;;;;;;;24.41;63.88;100405.26;116895;1188;21898;-59
2022/08/04 05:28:44;;;;;;;18.40;16.50;;;;;;;24.49;63.68;100408.08;116839;1188;22099;-62
2022/08/04 05:31:13;;;;;;;18.30;16.30;;;;;;;24.59;63.58;100410.41;116879;1186;22920;-66
2022/08/04 05:33:45;;;;;;;17.50;15.30;;;;;;;24.68;63.52;100409.60;116937;1186;21870;-59
2022/08/04 05:36:16;;;;;;;18.70;16.70;;;;;;;24.71;63.61;100415.73;116821;1186;21965;-59
2022/08/04 05:39:02;;;;;;;19.60;16.70;;;;;;;24.78;63.60;100415.91;116987;1188;21918;-65
2022/08/04 05:41:30;;;;;;;18.80;16.80;;;;;;;24.84;63.42;100418.73;116997;1188;22322;-66
2022/08/04 05:44:10;;;;;;;17.50;15.70;;;;;;;24.89;63.31;100422.16;116881;1188;23006;-65
2022/08/04 05:46:37;;;;;;;17.80;16.10;;;;;;;24.90;63.25;100426.95;116866;1188;22934;-66
2022/08/04 05:49:05;;;;;;;19.20;16.20;;;;;;;24.88;63.13;100429.79;116807;1188;22930;-66
2022/08/04 05:51:33;;;;;;;17.50;15.60;;;;;;;24.86;63.11;100429.73;116927;1188;21848;-59
2022/08/04 05:54:00;;;;;;;18.50;16.60;;;;;;;24.88;63.11;100429.03;116939;1189;23377;-65
2022/08/04 05:56:27;;;;;;;17.90;16.10;;;;;;;24.89;63.22;100431.67;116891;1188;23694;-65
2022/08/04 05:58:54;;;;;;;18.90;16.90;;;;;;;24.89;63.28;100432.23;116799;1189;22813;-65
2022/08/04 06:01:22;;;;;;;18.20;16.30;;;;;;;24.90;63.40;100431.58;116880;1189;23599;-66
2022/08/04 06:03:50;;;;;;;18.70;16.80;;;;;;;24.95;63.52;100432.33;116842;1189;21887;-59
2022/08/04 06:06:17;;;;;;;19.70;17.70;;;;;;;24.97;63.32;100436.32;116804;1188;21866;-60
2022/08/04 06:08:44;;;;;;;23.50;16.90;;;;;;;25.07;63.11;100435.02;116982;1186;24171;-66
2022/08/04 06:11:11;;;;;;;20.40;16.70;;;;;;;25.13;62.99;100436.61;116765;1188;23579;-59
2022/08/04 06:13:51;;;;;;;18.40;16.60;;;;;;;25.15;62.79;100437.70;116927;1190;22929;-59
2022/08/04 06:16:21;;;;;;;19.60;17.80;;;;;;;25.17;62.52;100440.28;117005;1188;21855;-66
2022/08/04 06:19:00;;;;;;;20.00;17.80;;;;;;;25.11;62.51;100442.84;117023;1188;21870;-66
2022/08/04 06:21:48;;;;;;;20.70;18.60;;;;;;;25.07;62.51;100446.52;116778;1189;23302;-66
2022/08/04 06:24:19;;;;;;;18.70;16.80;;;;;;;25.01;62.54;100446.09;117111;1189;23465;-66
2022/08/04 06:26:47;;;;;;;20.30;18.20;;;;;;;24.97;62.60;100448.13;117005;1188;22047;-65
2022/08/04 06:29:23;;;;;;;19.40;17.50;;;;;;;24.97;62.67;100446.15;116980;1188;21851;-59
2022/08/04 06:31:57;;;;;;;20.00;17.70;;;;;;;24.98;62.69;100444.64;116813;1188;22644;-59
2022/08/04 06:34:44;;;;;;;20.50;18.30;;;;;;;25.00;62.74;100445.92;116869;1188;24172;-60
2022/08/04 06:37:12;;;;;;;20.80;18.50;;;;;;;25.05;62.67;100446.31;116966;1186;22930;-60
2022/08/04 06:39:59;;;;;;;20.40;18.40;;;;;;;25.04;62.48;100448.33;116940;1188;21917;-67
2022/08/04 06:42:27;;;;;;;20.10;18.20;;;;;;;25.04;62.51;100449.27;116828;1186;23563;-60
2022/08/04 06:44:57;;;;;;;21.60;19.40;;;;;;;25.06;62.55;100448.02;116869;1189;23543;-60
2022/08/04 06:47:24;;;;;;;38.20;29.50;;;;;;;25.09;62.54;100446.90;117025;1189;23512;-60
2022/08/04 06:49:52;;;;;;;47.00;34.30;;;;;;;25.13;62.54;100451.33;116975;1186;23557;-67
2022/08/04 06:52:39;;;;;;;48.20;36.20;;;;;;;25.16;62.48;100452.17;116862;1188;21864;-67
2022/08/04 06:55:07;;;;;;;45.60;36.10;;;;;;;25.17;62.47;100452.79;116900;1188;23586;-66
2022/08/04 06:57:34;;;;;;;41.40;36.60;;;;;;;25.20;62.52;100455.62;117101;1187;21867;-66
2022/08/04 07:00:07;;;;;;;29.30;26.30;;;;;;;25.21;62.50;100450.69;116868;1189;22098;-58
2022/08/04 07:02:38;;;;;;;28.60;25.40;;;;;;;25.22;62.48;100449.91;116922;1186;23693;-57
2022/08/04 07:05:06;;;;;;;28.00;25.30;;;;;;;25.23;62.51;100449.52;117074;1189;22828;-67
2022/08/04 07:07:34;;;;;;;27.40;24.80;;;;;;;25.23;62.50;100451.45;117035;1189;22953;-66
2022/08/04 07:10:22;;;;;;;23.50;21.20;;;;;;;25.25;62.59;100450.45;116981;1187;21854;-59
2022/08/04 07:12:49;;;;;;;21.60;19.50;;;;;;;25.28;62.70;100448.82;116891;1189;23557;-60
2022/08/04 07:15:19;;;;;;;33.90;30.30;;;;;;;25.41;62.49;100449.33;116770;1191;22917;-67
2022/08/04 07:17:46;;;;;;;44.50;37.00;;;;;;;25.39;62.32;100449.60;116818;1188;21856;-60
2022/08/04 07:20:18;;;;;;;61.10;44.90;;;;;;;25.37;62.40;100446.52;116841;1188;21852;-59
2022/08/04 07:23:05;;;;;;;38.10;34.10;;;;;;;25.40;62.29;100445.38;117850;1188;21905;-66
2022/08/04 07:25:35;;;;;;;31.80;28.50;;;;;;;25.39;62.31;100442.62;116917;1189;21894;-60
2022/08/04 07:28:24;;;;;;;26.00;23.40;;;;;;;25.39;62.25;100439.36;116901;1189;22945;-67
2022/08/04 07:30:52;;;;;;;23.20;20.90;;;;;;;25.35;62.33;100435.66;117058;1187;21858;-67
2022/08/04 07:33:20;;;;;;;23.60;21.40;;;;;;;25.40;62.28;100435.00;117029;1189;21857;-66
2022/08/04 07:35:50;;;;;;;25.10;22.40;;;;;;;25.41;62.36;100430.74;116961;1183;22927;-66
2022/08/04 07:38:35;;;;;;;22.80;20.70;;;;;;;25.59;62.62;100429.61;117003;1189;22988;-67
2022/08/04 07:41:11;;;;;;;22.40;18.90;;;;;;;25.87;62.38;100427.59;117036;1188;22191;-59
2022/08/04 07:43:58;;;;;;;20.50;18.40;;;;;;;26.03;61.97;100425.44;116898;1189;22704;-67
2022/08/04 07:46:26;;;;;;;20.70;18.70;;;;;;;26.21;61.67;100423.02;116842;1189;24329;-67
2022/08/04 07:48:59;;;;;;;18.50;16.60;;;;;;;26.36;61.80;100422.96;116751;1188;22940;-67
2022/08/04 07:51:30;;;;;;;19.10;16.20;;;;;;;26.51;61.01;100425.39;117044;1191;21869;-67
2022/08/04 07:53:57;;;;;;;17.10;15.50;;;;;;;26.71;60.46;100421.88;116867;1189;23672;-66
2022/08/04 07:56:25;;;;;;;18.80;17.00;;;;;;;26.89;60.51;100424.23;116802;1186;21910;-67
2022/08/04 07:58:53;;;;;;;17.70;16.00;;;;;;;27.01;60.48;100428.99;117104;1186;22080;-60
2022/08/04 08:01:22;;;;;;;16.90;15.20;;;;;;;27.08;60.50;100429.86;117028;1186;24304;-66
2022/08/04 08:03:50;;;;;;;15.80;14.30;;;;;;;27.11;60.45;100428.77;117037;1189;21862;-67
2022/08/04 08:06:17;;;;;;;15.70;14.20;;;;;;;27.21;59.87;100427.41;117106;1188;21900;-67
2022/08/04 08:09:00;;;;;;;16.20;14.50;;;;;;;27.33;59.64;100428.10;116902;1189;21838;-66
2022/08/04 08:11:38;;;;;;;15.60;13.80;;;;;;;27.36;59.42;100427.80;116962;1186;24200;-67
2022/08/04 08:14:25;;;;;;;16.30;14.70;;;;;;;27.42;59.67;100432.89;116952;1188;21974;-67
2022/08/04 08:16:52;;;;;;;17.40;15.70;;;;;;;27.49;59.62;100431.27;116966;1186;21966;-61
2022/08/04 08:19:19;;;;;;;17.00;14.20;;;;;;;27.44;59.31;100432.96;117020;1189;23557;-60
2022/08/04 08:21:50;;;;;;;16.80;15.10;;;;;;;27.44;59.89;100433.66;116957;1183;23057;-60
2022/08/04 08:24:25;;;;;;;16.40;14.70;;;;;;;27.55;59.79;100434.02;116994;1188;22314;-67
2022/08/04 08:26:52;;;;;;;16.30;14.70;;;;;;;27.68;59.28;100434.41;116912;1186;21869;-60
2022/08/04 08:29:19;;;;;;;16.80;15.00;;;;;;;27.87;58.98;100431.40;116900;1189;21873;-60
2022/08/04 08:31:46;;;;;;;16.90;14.30;;;;;;;27.76;59.00;100429.41;116847;1183;21866;-68
2022/08/04 08:34:28;;;;;;;16.90;15.10;;;;;;;27.73;58.83;100424.73;116938;1188;23705;-67
2022/08/04 08:37:04;;;;;;;16.70;15.10;;;;;;;27.76;58.72;100426.55;116924;1189;21848;-67
2022/08/04 08:39:39;;;;;;;14.80;13.30;;;;;;;27.82;58.71;100422.45;117030;1189;21934;-60
2022/08/04 08:42:30;;;;;;;15.60;14.00;;;;;;;27.95;58.97;100421.83;117090;1188;21852;-60
2022/08/04 08:45:28;;;;;;;14.90;13.40;;;;;;;28.19;58.96;100415.87;117069;1187;23705;-60
2022/08/04 08:48:06;;;;;;;13.60;12.40;;;;;;;28.46;58.42;100415.53;116999;1188;22810;-66
2022/08/04 08:51:05;;;;;;;13.80;12.00;;;;;;;28.65;58.55;100410.69;117134;1188;24197;-60
2022/08/04 08:53:35;;;;;;;13.00;11.80;;;;;;;28.92;58.38;100412.39;117030;1189;21853;-68
2022/08/04 08:56:12;;;;;;;;;;;;;;;29.08;56.88;100411.95;116945;1189;22097;-67
2022/08/04 08:59:17;;;;;;;13.10;11.80;;;;;;;29.15;57.20;100413.98;116896;1189;22751;-67
2022/08/04 09:01:50;;;;;;;13.10;11.20;;;;;;;29.37;56.54;100416.39;116897;1186;23530;-61
2022/08/04 09:04:34;;;;;;;12.80;11.50;;;;;;;29.35;55.95;100418.76;116967;1189;21850;-60
2022/08/04 09:07:20;;;;;;;15.50;11.30;;;;;;;29.44;55.98;100419.94;117109;1186;24271;-67
2022/08/04 09:09:48;;;;;;;12.20;10.90;;;;;;;29.56;55.73;100420.84;117048;1187;23564;-67
2022/08/04 09:12:24;;;;;;;11.40;10.20;;;;;;;29.69;56.09;100416.39;117056;1186;24265;-61
2022/08/04 09:14:57;;;;;;;12.40;11.20;;;;;;;29.89;55.92;100415.08;117031;1189;22974;-60
2022/08/04 09:17:54;;;;;;;11.60;10.50;;;;;;;30.15;55.26;100414.83;117019;1189;23588;-61
2022/08/04 09:20:38;;;;;;;11.50;10.20;;;;;;;30.18;55.07;100411.51;116857;1189;22629;-61
2022/08/04 09:23:07;;;;;;;10.80;9.80;;;;;;;30.16;55.27;100412.00;116882;1189;21852;-66
2022/08/04 09:25:42;;;;;;;14.10;10.10;;;;;;;30.27;55.74;100412.23;116905;1189;21869;-66
2022/08/04 09:28:30;;;;;;;11.40;9.70;;;;;;;30.48;55.26;100407.20;116916;1188;21857;-66
2022/08/04 09:31:21;;;;;;;10.50;8.70;;;;;;;30.76;55.47;100409.77;116987;1189;21867;-66
2022/08/04 09:34:09;;;;;;;10.60;9.50;;;;;;;30.87;55.59;100409.27;116980;1188;22657;-66
2022/08/04 09:36:42;;;;;;;11.70;10.00;;;;;;;30.90;53.78;100409.11;116993;1186;22927;-61
2022/08/04 09:39:27;;;;;;;10.20;9.10;;;;;;;30.92;54.22;100413.06;117128;1186;24159;-61
2022/08/04 09:42:03;;;;;;;10.00;8.80;;;;;;;31.17;54.62;100404.37;116952;1188;22932;-61
2022/08/04 09:44:54;;;;;;;9.50;8.60;;;;;;;31.51;54.38;100402.58;117101;1185;21983;-59
2022/08/04 09:47:53;;;;;;;10.60;9.50;;;;;;;31.75;53.17;100411.08;116854;1188;21847;-66
2022/08/04 09:50:40;;;;;;;9.60;8.70;;;;;;;31.67;52.78;100409.33;116855;1185;22928;-61
2022/08/04 09:53:25;;;;;;;10.90;9.20;;;;;;;31.49;52.31;100410.06;116848;1187;21903;-60
2022/08/04 09:56:01;;;;;;;9.80;8.90;;;;;;;31.47;53.05;100407.02;116989;1186;23469;-61
2022/08/04 09:58:57;;;;;;;9.00;7.70;;;;;;;31.74;52.32;100406.80;117032;1189;21889;-61
2022/08/04 10:01:25;;;;;;;8.80;7.70;;;;;;;31.77;51.98;100409.03;116859;1186;23586;-66
2022/08/04 10:03:55;;;;;;;10.10;9.10;;;;;;;31.94;51.64;100404.95;117030;1188;23570;-60
2022/08/04 10:06:39;;;;;;;8.90;7.90;;;;;;;32.12;51.46;100408.04;117001;1188;22917;-60
2022/08/04 10:09:40;;;;;;;9.50;8.30;;;;;;;32.23;50.10;100407.50;117035;1188;21867;-67
2022/08/04 10:12:28;;;;;;;11.00;9.90;;;;;;;32.55;50.67;100403.59;116931;1186;23595;-61
2022/08/04 10:15:01;;;;;;;11.30;9.10;;;;;;;32.73;50.20;100407.59;117001;1188;21857;-67
2022/08/04 10:17:56;;;;;;;11.60;10.30;;;;;;;32.74;49.41;100409.09;117113;1188;21868;-60
2022/08/04 10:20:55;;;;;;;10.80;9.80;;;;;;;32.74;49.86;100406.16;116989;1189;22483;-61
2022/08/04 10:23:58;;;;;;;11.30;10.20;;;;;;;32.81;50.21;100405.77;116914;1187;22940;-61
2022/08/04 10:26:34;;;;;;;11.60;9.50;;;;;;;33.00;50.13;100410.39;116987;1189;21876;-67
2022/08/04 10:29:04;;;;;;;13.00;9.40;;;;;;;33.16;49.67;100410.84;116887;1185;23558;-62
2022/08/04 10:31:37;;;;;;;10.70;9.60;;;;;;;33.15;49.18;100411.25;116969;1188;22931;-62
2022/08/04 10:34:10;;;;;;;11.20;10.20;;;;;;;33.15;49.25;100411.71;116890;1186;24380;-61
2022/08/04 10:36:44;;;;;;;10.60;9.60;;;;;;;33.13;48.85;100413.70;116923;1187;22649;-61
2022/08/04 10:39:18;;;;;;;13.20;9.90;;;;;;;33.01;48.18;100415.54;116869;1188;21871;-68
2022/08/04 10:42:16;;;;;;;11.90;8.30;;;;;;;32.78;49.10;100416.08;116945;1188;22973;-65
2022/08/04 10:45:14;;;;;;;10.50;8.80;;;;;;;32.62;48.54;100413.80;117005;1189;23645;-60
2022/08/04 10:47:44;;;;;;;9.10;8.30;;;;;;;32.57;49.16;100410.52;116953;1189;21877;-66
2022/08/04 10:50:20;;;;;;;8.90;7.50;;;;;;;32.81;49.86;100403.32;116887;1188;21861;-66
2022/08/04 10:53:00;;;;;;;9.10;8.10;;;;;;;33.07;48.72;100404.69;117070;1190;21846;-60
2022/08/04 10:55:41;;;;;;;10.90;8.10;;;;;;;33.49;48.94;100403.52;116879;1186;23605;-66
2022/08/04 10:58:29;;;;;;;;;;;;;;;33.97;48.14;100403.83;116966;1186;22927;-66
2022/08/04 11:01:26;;;;;;;8.70;7.90;;;;;;;34.26;46.55;100402.98;117074;1189;22929;-66
2022/08/04 11:04:29;;;;;;;8.20;7.00;;;;;;;34.54;47.21;100401.02;116909;1189;21866;-65
2022/08/04 11:06:57;;;;;;;8.20;7.40;;;;;;;34.76;46.78;100398.83;117069;1186;23640;-60
2022/08/04 11:09:24;;;;;;;8.10;7.30;;;;;;;34.90;46.67;100392.12;116919;1189;21862;-60
2022/08/04 11:12:22;;;;;;;8.80;7.40;;;;;;;35.06;46.52;100387.41;117029;1186;23598;-65
2022/08/04 11:14:53;;;;;;;9.10;7.50;;;;;;;35.32;46.37;100382.61;116977;1188;21856;-66
2022/08/04 11:17:27;;;;;;;8.20;7.20;;;;;;;35.81;46.42;100376.42;117238;1186;21942;-67
2022/08/04 11:20:19;;;;;;;9.70;7.10;;;;;;;36.25;45.97;100374.27;117197;1178;22926;-61
2022/08/04 11:23:08;;;;;;;8.90;6.40;;;;;;;36.51;45.79;100373.35;118124;1188;21863;-68
2022/08/04 11:25:54;;;;;;;8.70;6.20;;;;;;;36.69;44.93;100372.59;117077;1186;22963;-68
2022/08/04 11:28:26;;;;;;;7.00;6.30;;;;;;;36.91;45.06;100367.29;116736;1185;22932;-68
2022/08/04 11:31:03;;;;;;;7.20;6.50;;;;;;;37.01;43.18;100373.04;118869;1187;21835;-69
2022/08/04 11:34:03;;;;;;;7.00;6.30;;;;;;;36.90;43.71;100369.47;116925;1186;21875;-62
2022/08/04 11:36:35;;;;;;;6.60;6.00;;;;;;;36.69;42.39;100368.25;118746;1186;22910;-61
2022/08/04 11:39:23;;;;;;;6.30;5.70;;;;;;;36.58;42.46;100365.74;117265;1186;22927;-65
2022/08/04 11:41:52;;;;;;;8.00;5.90;;;;;;;36.65;42.93;100368.86;116902;1187;22953;-66
2022/08/04 11:44:50;;;;;;;8.10;5.60;;;;;;;36.76;43.80;100366.05;117030;1186;22967;-62
2022/08/04 11:47:23;;;;;;;6.70;6.00;;;;;;;36.86;43.05;100367.94;116725;1188;23579;-67
2022/08/04 11:50:16;;;;;;;6.30;5.70;;;;;;;36.76;42.96;100362.92;117112;1189;22411;-61
2022/08/04 11:52:43;;;;;;;6.00;5.40;;;;;;;36.96;42.70;100359.20;116952;1188;21873;-62
2022/08/04 11:55:12;;;;;;;5.80;5.30;;;;;;;37.16;42.61;100359.95;116912;1188;21855;-62
2022/08/04 11:57:40;;;;;;;6.90;6.10;;;;;;;37.23;42.03;100362.42;117020;1188;21944;-63
2022/08/04 12:00:11;;;;;;;6.30;5.70;;;;;;;37.35;41.76;100352.31;117045;1187;22489;-67
2022/08/04 12:02:48;;;;;;;5.80;5.20;;;;;;;37.30;40.65;100346.29;117280;1186;21843;-62
2022/08/04 12:05:17;;;;;;;6.00;5.40;;;;;;;37.26;40.29;100349.35;117092;1187;21865;-68